West Point, Pennsylvania
Current Conditions -  °F | °C
As of 11:15 AM on Wednesday 22 Oct 2014 (Local Time) from KLOM Reporting Station
Overcast Overcast  
Wind Chill: 54°   Ceiling: 1200
Heat Index: 54°   Visibility: 5mi
Dew Point: 52°   Wind: 6mph
Humidity: 94%   Direction: 20°NNE
Pressure: 29.9"   Gusts: NA
Location:  40.2°N, 75.29°W
Report Text: KLOM 221515Z AUTO 02005KT 5SM SCT007 OVC012 12/11 A2990 RMK AO1 P0001
Loading
Personal Weather Stations






























Interactive Weather Map
Tropical Storm Tracking
New forecast layout! Learn more

10-Day Weather Forecast

Advertisements
Track Severe Weather on mobile